Time;durP1;ratioP1;P1;durP2;ratioP2;P2;SDS_P1;SDS_P2;PMS_P1;PMS_P2;Temp;Humidity;BMP_temperature;BMP_pressure;BME280_temperature;BME280_humidity;BME280_pressure;Samples;Min_cycle;Max_cycle;Signal;HPM_P1;HPM_P2
2023/02/24 00:02:06;;;;;;;44.30;25.20;;;;;;;4.86;75.50;99355.39;131328;1253;107452;-78
2023/02/24 00:05:12;;;;;;;43.80;24.90;;;;;;;4.88;75.50;99350.02;131329;1253;107351;-78
2023/02/24 00:08:18;;;;;;;45.40;24.90;;;;;;;4.91;75.71;99348.10;131315;1254;107352;-78
2023/02/24 00:11:23;;;;;;;44.00;25.70;;;;;;;4.96;75.74;99337.95;131355;1251;107524;-79
2023/02/24 00:14:31;;;;;;;49.50;26.90;;;;;;;5.03;75.79;99336.61;131317;1250;107231;-79
2023/02/24 00:17:37;;;;;;;44.00;27.20;;;;;;;5.08;75.65;99331.52;131216;1254;107442;-79
2023/02/24 00:20:43;;;;;;;48.90;27.90;;;;;;;5.13;75.84;99329.58;131373;1271;106234;-79
2023/02/24 00:23:48;;;;;;;45.10;27.70;;;;;;;5.15;75.85;99328.54;131292;1270;107254;-79
2023/02/24 00:26:55;;;;;;;49.90;27.90;;;;;;;5.16;75.97;99320.31;131279;1252;107581;-79
2023/02/24 00:30:04;;;;;;;49.30;28.80;;;;;;;5.16;75.87;99316.75;131326;1253;107504;-78
2023/02/24 00:33:11;;;;;;;49.20;27.00;;;;;;;5.16;76.06;99308.31;131247;1261;107475;-79
2023/02/24 00:36:22;;;;;;;49.40;25.80;;;;;;;5.17;76.28;99299.04;131347;1260;107832;-79
2023/02/24 00:39:32;;;;;;;47.80;26.40;;;;;;;5.21;76.22;99292.02;131340;1253;107476;-79
2023/02/24 00:42:38;;;;;;;49.60;28.00;;;;;;;5.25;76.27;99282.98;131425;1252;106991;-78
2023/02/24 00:45:45;;;;;;;46.80;28.00;;;;;;;5.32;76.29;99280.19;131384;1251;108660;-81
2023/02/24 00:48:53;;;;;;;49.50;29.30;;;;;;;5.38;76.29;99274.48;131423;1253;107453;-78
2023/02/24 00:52:00;;;;;;;49.40;28.80;;;;;;;5.43;76.54;99273.67;131301;1253;107532;-80
2023/02/24 00:55:12;;;;;;;51.10;28.80;;;;;;;5.47;76.67;99279.86;131393;1248;107536;-78
2023/02/24 00:58:18;;;;;;;48.60;28.50;;;;;;;5.48;76.63;99278.72;131449;1252;107536;-78
2023/02/24 01:01:26;;;;;;;47.90;26.60;;;;;;;5.47;76.59;99275.77;131268;1252;108133;-77
2023/02/24 01:04:32;;;;;;;49.80;26.60;;;;;;;5.47;76.81;99272.73;131325;1252;106506;-80
2023/02/24 01:07:38;;;;;;;50.60;28.30;;;;;;;5.50;77.20;99266.87;131319;1258;107386;-79
2023/02/24 01:12:00;;;;;;;52.10;29.00;;;;;;;5.56;77.28;99262.48;131245;1253;107432;-79
2023/02/24 01:14:12;;;;;;;48.10;28.80;;;;;;;5.62;77.24;99258.13;131306;1254;107524;-79
2023/02/24 01:17:20;;;;;;;48.80;29.60;;;;;;;5.66;77.16;99257.42;131444;1260;106483;-80
2023/02/24 01:20:29;;;;;;;54.10;30.10;;;;;;;5.68;77.24;99251.90;131396;1251;108652;-79
2023/02/24 01:23:34;;;;;;;51.70;30.50;;;;;;;5.69;77.22;99250.02;131388;1258;107522;-79
2023/02/24 01:26:40;;;;;;;53.00;29.90;;;;;;;5.70;77.57;99249.64;131348;1254;107378;-78
2023/02/24 01:29:46;;;;;;;48.40;26.60;;;;;;;5.69;77.38;99247.04;131264;1253;107545;-78
2023/02/24 01:32:52;;;;;;;50.60;26.00;;;;;;;5.69;77.34;99240.02;131341;1253;107560;-79
2023/02/24 01:35:57;;;;;;;47.80;27.70;;;;;;;5.71;77.59;99244.29;131285;1253;106388;-78
2023/02/24 01:39:09;;;;;;;49.30;28.50;;;;;;;5.75;77.82;99236.48;131348;1254;107414;-79
2023/02/24 01:42:18;;;;;;;49.80;28.10;;;;;;;5.78;77.61;99235.45;131307;1249;107512;-79
2023/02/24 01:45:28;;;;;;;48.60;30.10;;;;;;;5.81;77.70;99229.18;131378;1254;108666;-79
2023/02/24 01:48:34;;;;;;;50.20;29.40;;;;;;;5.84;77.63;99228.89;131537;1260;107539;-79
2023/02/24 01:51:44;;;;;;;49.40;29.90;;;;;;;5.85;77.84;99226.51;131481;1248;108699;-79
2023/02/24 01:54:57;;;;;;;53.80;30.80;;;;;;;5.85;77.99;99226.65;131412;1253;105475;-79
2023/02/24 01:58:08;;;;;;;46.20;26.90;;;;;;;5.84;77.78;99220.36;131392;1252;107483;-77
2023/02/24 02:01:18;;;;;;;45.50;26.70;;;;;;;5.84;77.98;99220.16;131259;1253;107431;-80
2023/02/24 02:04:29;;;;;;;47.00;27.80;;;;;;;5.88;78.02;99215.63;131333;1253;107524;-79
2023/02/24 02:07:39;;;;;;;46.10;28.60;;;;;;;5.92;78.13;99209.19;131304;1252;107573;-79
2023/02/24 02:10:46;;;;;;;49.00;29.70;;;;;;;5.98;78.26;99202.89;131313;1248;107362;-79
2023/02/24 02:13:53;;;;;;;48.60;30.10;;;;;;;6.00;78.18;99202.61;131353;1251;107531;-79
2023/02/24 02:17:12;;;;;;;51.60;30.50;;;;;;;6.01;77.94;99199.72;131337;1264;108648;-79
2023/02/24 02:20:46;;;;;;;49.20;30.00;;;;;;;6.02;78.16;99195.55;131407;1253;107458;-79
2023/02/24 02:24:04;;;;;;;52.30;31.20;;;;;;;6.03;78.22;99189.67;131371;1248;108672;-79
2023/02/24 02:27:40;;;;;;;49.30;28.30;;;;;;;6.02;78.18;99183.89;131413;1254;107783;-78
2023/02/24 02:31:13;;;;;;;49.50;28.70;;;;;;;6.02;78.71;99180.05;131455;1253;107582;-79
2023/02/24 02:34:29;;;;;;;47.70;29.80;;;;;;;6.04;78.76;99173.49;131524;1251;108652;-79
2023/02/24 02:37:44;;;;;;;51.60;29.30;;;;;;;6.09;78.88;99172.48;131551;1251;107381;-78
2023/02/24 02:40:59;;;;;;;52.50;30.60;;;;;;;6.14;78.96;99170.71;131499;1249;106775;-78
2023/02/24 02:44:11;;;;;;;52.90;31.10;;;;;;;6.18;79.13;99167.20;131471;1260;107613;-79
2023/02/24 02:47:24;;;;;;;54.30;32.30;;;;;;;6.19;79.23;99168.48;131390;1251;107475;-80
2023/02/24 02:50:36;;;;;;;55.90;31.50;;;;;;;6.19;79.07;99167.08;131509;1247;107499;-80
2023/02/24 02:53:48;;;;;;;53.20;29.10;;;;;;;6.17;79.68;99164.09;131421;1260;107442;-78
2023/02/24 02:56:58;;;;;;;;;;;;;;;6.17;79.36;99158.86;131461;1260;107578;-81
2023/02/24 03:00:12;;;;;;;45.00;27.10;;;;;;;6.18;79.61;99157.64;131514;1251;107512;-78
2023/02/24 03:03:19;;;;;;;50.90;29.10;;;;;;;6.23;79.65;99157.34;131426;1253;107610;-79
2023/02/24 03:06:29;;;;;;;49.40;30.40;;;;;;;6.28;79.98;99156.98;131343;1253;107546;-81
2023/02/24 03:09:39;;;;;;;51.10;30.70;;;;;;;6.33;79.94;99154.05;131260;1253;107525;-79
2023/02/24 03:12:50;;;;;;;51.70;31.60;;;;;;;6.36;80.21;99149.14;131308;1248;107517;-78
2023/02/24 03:15:58;;;;;;;54.60;32.00;;;;;;;6.38;80.18;99146.14;131223;1253;108734;-78
2023/02/24 03:19:08;;;;;;;52.00;31.60;;;;;;;6.38;80.18;99141.05;131256;1247;107231;-79
2023/02/24 03:22:19;;;;;;;53.20;33.30;;;;;;;6.36;80.20;99136.98;131283;1254;108581;-78
2023/02/24 03:25:33;;;;;;;49.80;28.30;;;;;;;6.33;80.15;99133.42;131321;1251;106813;-78
2023/02/24 03:28:46;;;;;;;49.00;27.50;;;;;;;6.31;80.53;99129.00;131201;1254;106849;-79
2023/02/24 03:31:58;;;;;;;51.60;31.30;;;;;;;6.31;80.79;99128.14;131194;1247;107638;-78
2023/02/24 03:35:13;;;;;;;53.30;33.00;;;;;;;6.34;81.04;99132.06;131235;1251;107453;-77
2023/02/24 03:38:23;;;;;;;53.00;31.80;;;;;;;6.36;80.98;99128.64;131349;1251;107466;-80
2023/02/24 03:41:37;;;;;;;54.90;32.00;;;;;;;6.37;80.96;99124.70;131364;1251;107508;-78
2023/02/24 03:44:44;;;;;;;55.80;32.20;;;;;;;6.37;81.34;99122.34;131486;1261;108642;-77
2023/02/24 03:47:52;;;;;;;50.10;29.00;;;;;;;6.35;81.42;99118.52;131251;1251;107485;-78
2023/02/24 03:50:59;;;;;;;49.90;28.30;;;;;;;6.34;81.56;99112.40;131302;1261;107501;-79
2023/02/24 03:54:32;;;;;;;48.40;29.30;;;;;;;6.36;81.53;99110.69;131231;1253;107418;-79
2023/02/24 03:57:54;;;;;;;51.40;30.30;;;;;;;6.39;81.93;99108.96;131257;1248;107352;-80
2023/02/24 04:01:10;;;;;;;53.20;31.80;;;;;;;6.40;82.31;99104.03;131206;1251;107459;-78
2023/02/24 04:04:26;;;;;;;52.50;33.20;;;;;;;6.43;82.10;99102.70;131458;1248;107553;-78
2023/02/24 04:07:52;;;;;;;48.40;30.90;;;;;;;6.42;81.85;99089.90;131479;1251;107527;-78
2023/02/24 04:11:04;;;;;;;53.00;29.30;;;;;;;6.40;82.27;99086.41;132663;1251;107531;-78
2023/02/24 04:14:12;;;;;;;53.30;29.60;;;;;;;6.39;82.35;99083.48;131489;1250;107638;-77
2023/02/24 04:17:27;;;;;;;69.30;35.90;;;;;;;6.41;82.40;99080.82;131447;1251;107468;-78
2023/02/24 04:20:35;;;;;;;96.70;54.00;;;;;;;6.46;82.72;99082.29;131532;1248;107526;-77
2023/02/24 04:23:44;;;;;;;282.00;111.90;;;;;;;6.49;82.49;99074.33;131438;1250;108614;-78
2023/02/24 04:26:51;;;;;;;85.20;43.20;;;;;;;6.51;82.51;99065.50;131208;1248;107554;-78
2023/02/24 04:30:03;;;;;;;67.60;39.00;;;;;;;6.52;82.88;99066.48;131223;1251;107458;-77
2023/02/24 04:33:10;;;;;;;71.60;34.20;;;;;;;6.50;82.93;99061.70;131127;1254;107472;-78
2023/02/24 04:36:16;;;;;;;69.70;34.50;;;;;;;6.49;82.95;99057.23;131490;1251;107489;-77
2023/02/24 04:39:23;;;;;;;80.90;37.00;;;;;;;6.50;83.14;99054.31;131170;1254;107566;-76
2023/02/24 04:42:30;;;;;;;65.30;33.80;;;;;;;6.53;83.14;99052.44;131447;1248;107504;-77
2023/02/24 04:45:38;;;;;;;72.00;39.30;;;;;;;6.55;83.62;99049.52;131403;1251;107607;-76
2023/02/24 04:48:44;;;;;;;59.70;33.70;;;;;;;6.58;83.24;99044.45;131521;1261;107505;-76
2023/02/24 04:51:50;;;;;;;55.60;33.70;;;;;;;6.57;83.48;99040.67;131493;1247;107466;-76
2023/02/24 04:54:57;;;;;;;50.90;29.20;;;;;;;6.56;83.54;99036.33;131469;1251;107443;-75
2023/02/24 04:58:03;;;;;;;65.00;37.10;;;;;;;6.56;83.78;99035.43;131473;1251;107234;-75
2023/02/24 05:01:11;;;;;;;58.70;35.30;;;;;;;6.57;83.74;99029.58;131444;1251;107471;-77
2023/02/24 05:04:17;;;;;;;52.40;31.10;;;;;;;6.60;84.00;99030.80;131207;1253;107528;-78
2023/02/24 05:07:22;;;;;;;76.10;42.30;;;;;;;6.64;83.77;99029.48;131382;1253;107277;-77
2023/02/24 05:10:29;;;;;;;85.90;49.20;;;;;;;6.65;84.20;99022.33;131458;1252;106749;-79
2023/02/24 05:13:36;;;;;;;57.00;32.80;;;;;;;6.64;84.23;99017.89;131503;1251;107662;-77
2023/02/24 05:16:43;;;;;;;59.00;33.90;;;;;;;6.63;84.16;99020.63;131553;1251;107386;-77
2023/02/24 05:23:11;;;;;;;620.00;237.80;;;;;;;6.69;84.36;99013.51;131504;1251;107456;-77
2023/02/24 05:26:19;;;;;;;516.30;215.90;;;;;;;6.72;84.62;99010.34;131493;1250;107394;-78
2023/02/24 05:29:26;;;;;;;201.40;94.20;;;;;;;6.74;84.49;99013.70;131552;1250;107403;-77
2023/02/24 05:32:33;;;;;;;80.60;43.50;;;;;;;6.73;84.35;99010.42;131303;1251;107127;-77
2023/02/24 05:35:39;;;;;;;53.60;30.30;;;;;;;6.72;84.39;99010.19;131235;1251;107509;-76
2023/02/24 05:38:46;;;;;;;47.20;29.30;;;;;;;6.69;84.57;99009.86;131310;1251;107522;-76
2023/02/24 05:41:53;;;;;;;50.60;29.10;;;;;;;6.71;84.39;99007.81;131468;1251;107524;-77
2023/02/24 05:44:58;;;;;;;50.20;28.80;;;;;;;6.74;84.69;99005.58;131439;1262;107537;-77
2023/02/24 05:48:05;;;;;;;46.50;29.40;;;;;;;6.78;84.65;99005.49;131496;1251;106793;-78
2023/02/24 05:51:11;;;;;;;50.20;29.80;;;;;;;6.79;84.64;98998.23;131446;1263;107538;-77
2023/02/24 05:54:17;;;;;;;52.10;34.70;;;;;;;6.78;85.09;99003.83;131461;1247;107284;-77
2023/02/24 05:57:26;;;;;;;43.30;25.70;;;;;;;6.75;85.04;99002.60;131347;1253;107461;-77
2023/02/24 06:00:32;;;;;;;38.80;24.20;;;;;;;6.76;85.28;98997.73;131437;1252;107262;-77
2023/02/24 06:03:40;;;;;;;45.00;27.80;;;;;;;6.77;85.16;98994.48;131459;1251;107624;-77
2023/02/24 06:06:46;;;;;;;81.70;50.30;;;;;;;6.81;85.07;98993.18;131518;1248;107234;-78
2023/02/24 06:09:53;;;;;;;65.00;40.40;;;;;;;6.84;85.22;98990.17;131445;1251;107446;-78
2023/02/24 06:12:59;;;;;;;46.60;30.10;;;;;;;6.87;85.28;98988.05;131496;1251;105820;-77
2023/02/24 06:16:06;;;;;;;45.00;23.70;;;;;;;6.88;85.13;98982.88;131514;1248;107262;-77
2023/02/24 06:19:12;;;;;;;66.90;39.10;;;;;;;6.88;85.21;98984.48;131472;1260;107507;-76
2023/02/24 06:22:21;;;;;;;53.20;30.90;;;;;;;6.88;85.58;98981.95;131462;1252;107528;-75
2023/02/24 06:25:28;;;;;;;44.40;27.10;;;;;;;6.92;85.53;98983.17;131450;1260;107213;-77
2023/02/24 06:28:34;;;;;;;46.20;27.60;;;;;;;6.95;85.37;98975.29;131587;1251;107553;-77
2023/02/24 06:31:40;;;;;;;45.90;28.30;;;;;;;6.97;85.51;98975.56;131280;1260;107526;-77
2023/02/24 06:34:46;;;;;;;45.30;28.00;;;;;;;6.96;85.72;98968.90;131210;1251;107388;-78
2023/02/24 06:37:54;;;;;;;37.40;21.90;;;;;;;6.95;85.69;98968.33;131235;1251;109343;-77
2023/02/24 06:41:02;;;;;;;35.00;20.50;;;;;;;6.95;85.79;98967.45;131330;1252;107273;-77
2023/02/24 06:44:09;;;;;;;37.80;23.00;;;;;;;6.97;85.91;98963.00;131354;1251;108568;-77
2023/02/24 06:47:17;;;;;;;37.60;23.50;;;;;;;7.00;86.14;98965.16;131298;1251;107509;-77
2023/02/24 06:50:22;;;;;;;39.40;24.00;;;;;;;7.02;85.79;98963.67;131123;1252;107425;-77
2023/02/24 06:53:28;;;;;;;45.30;28.90;;;;;;;7.04;85.92;98964.52;131064;1252;107437;-78
2023/02/24 06:56:37;;;;;;;118.60;63.50;;;;;;;7.04;85.93;98960.70;131032;1248;105679;-77
2023/02/24 06:59:44;;;;;;;108.10;66.20;;;;;;;7.03;85.97;98961.48;131088;1264;108682;-77
2023/02/24 07:02:50;;;;;;;44.10;29.60;;;;;;;7.04;86.17;98961.40;131205;1247;107378;-78
2023/02/24 07:06:19;;;;;;;35.80;23.10;;;;;;;7.08;86.20;98961.81;131200;1251;107707;-77
2023/02/24 07:09:23;;;;;;;35.50;24.40;;;;;;;7.13;86.26;98960.45;131206;1254;107421;-77
2023/02/24 07:12:29;;;;;;;43.00;32.90;;;;;;;7.14;86.16;98957.73;131392;1251;108664;-78
2023/02/24 07:15:37;;;;;;;52.30;37.80;;;;;;;7.13;86.44;98952.16;131249;1264;107568;-77
2023/02/24 07:18:47;;;;;;;60.20;39.60;;;;;;;7.13;86.42;98947.22;131273;1251;107617;-77
2023/02/24 07:21:58;;;;;;;47.90;30.90;;;;;;;7.17;86.38;98946.80;131251;1248;107299;-77
2023/02/24 07:25:06;;;;;;;34.70;23.10;;;;;;;7.24;86.49;98943.06;131302;1248;107234;-78
2023/02/24 07:28:12;;;;;;;34.00;23.90;;;;;;;7.30;86.61;98944.83;131232;1250;108610;-77
2023/02/24 07:31:21;;;;;;;33.70;22.90;;;;;;;7.34;86.61;98940.88;131187;1248;107418;-77
2023/02/24 07:34:27;;;;;;;30.80;21.20;;;;;;;7.35;86.51;98938.79;131219;1251;107612;-76
2023/02/24 07:37:33;;;;;;;36.20;23.30;;;;;;;7.36;86.66;98936.48;131245;1253;107322;-77
2023/02/24 07:40:39;;;;;;;26.80;17.50;;;;;;;7.34;86.60;98933.32;131216;1253;107553;-77
2023/02/24 07:43:45;;;;;;;36.70;25.80;;;;;;;7.36;86.94;98930.60;131261;1251;108564;-77
2023/02/24 07:46:52;;;;;;;31.10;21.60;;;;;;;7.42;86.97;98925.89;131203;1251;107298;-77
2023/02/24 07:49:59;;;;;;;35.40;24.00;;;;;;;7.46;86.85;98918.69;131464;1251;105734;-76
2023/02/24 07:53:05;;;;;;;39.30;27.80;;;;;;;7.49;86.91;98916.27;131411;1248;107308;-76
2023/02/24 07:56:13;;;;;;;42.90;30.70;;;;;;;7.51;86.84;98910.20;131361;1262;107703;-77
2023/02/24 07:59:20;;;;;;;49.40;34.60;;;;;;;7.54;86.99;98909.90;131336;1251;107659;-77
2023/02/24 08:02:28;;;;;;;30.70;20.70;;;;;;;7.57;87.08;98907.10;131344;1253;107225;-77
2023/02/24 08:05:35;;;;;;;40.80;29.60;;;;;;;7.61;86.87;98902.69;131343;1250;107682;-77
2023/02/24 08:08:56;;;;;;;35.80;24.70;;;;;;;7.65;87.03;98902.15;131266;1261;107512;-78
2023/02/24 08:12:02;;;;;;;35.10;23.20;;;;;;;7.69;87.05;98897.47;131223;1251;106400;-78
2023/02/24 08:15:20;;;;;;;38.90;27.30;;;;;;;7.71;87.11;98897.21;131250;1250;107237;-78
2023/02/24 08:18:28;;;;;;;33.90;24.00;;;;;;;7.72;87.08;98895.02;131326;1251;107270;-78
2023/02/24 08:21:37;;;;;;;22.70;14.40;;;;;;;7.73;87.24;98892.79;131241;1251;107519;-77
2023/02/24 08:24:42;;;;;;;24.10;16.50;;;;;;;7.77;87.21;98890.75;131278;1251;107463;-77
2023/02/24 08:27:54;;;;;;;35.50;23.60;;;;;;;7.83;87.22;98884.80;131284;1251;106824;-77
2023/02/24 08:31:03;;;;;;;38.40;28.70;;;;;;;7.87;87.22;98884.87;131221;1252;107364;-77
2023/02/24 08:34:09;;;;;;;187.10;115.60;;;;;;;7.91;87.19;98877.86;131339;1251;107540;-77
2023/02/24 08:37:15;;;;;;;261.60;226.60;;;;;;;7.93;87.33;98875.18;131239;1251;107541;-77
2023/02/24 08:40:38;;;;;;;57.20;45.40;;;;;;;7.94;87.36;98872.59;131189;1251;108686;-77
2023/02/24 08:43:45;;;;;;;262.20;173.90;;;;;;;7.98;87.38;98868.11;131345;1251;107451;-77
2023/02/24 08:46:51;;;;;;;165.20;103.90;;;;;;;8.03;87.45;98866.96;131429;1248;107493;-77
2023/02/24 08:49:58;;;;;;;48.00;29.90;;;;;;;8.08;87.47;98859.14;131453;1251;105520;-77
2023/02/24 08:53:04;;;;;;;91.80;57.70;;;;;;;8.11;87.38;98857.63;131425;1250;107243;-77
2023/02/24 08:56:12;;;;;;;58.80;43.40;;;;;;;8.11;87.42;98854.79;131327;1251;105690;-78
2023/02/24 09:02:42;;;;;;;72.00;50.50;;;;;;;8.06;87.64;98847.50;131283;1251;108499;-77
2023/02/24 09:05:47;;;;;;;109.10;70.40;;;;;;;8.08;87.65;98846.63;131441;1247;108412;-77
2023/02/24 09:12:24;;;;;;;27.00;19.00;;;;;;;8.12;88.05;98843.83;131329;1251;107471;-77
2023/02/24 09:15:40;;;;;;;26.00;17.40;;;;;;;8.04;88.25;98843.31;131238;1262;108657;-78
2023/02/24 09:19:13;;;;;;;29.50;19.50;;;;;;;7.87;88.64;98842.42;131165;1251;107456;-77
2023/02/24 09:22:30;;;;;;;21.70;14.80;;;;;;;7.80;88.83;98844.22;131231;1247;107521;-78
2023/02/24 09:25:42;;;;;;;22.30;15.40;;;;;;;7.82;88.56;98846.14;131195;1251;107440;-77
2023/02/24 09:28:53;;;;;;;23.80;16.40;;;;;;;7.82;88.69;98850.36;131203;1251;106344;-78
2023/02/24 09:32:03;;;;;;;20.70;14.50;;;;;;;7.82;88.48;98848.36;131225;1248;107404;-77
2023/02/24 09:35:09;;;;;;;27.80;19.50;;;;;;;7.78;88.94;98846.59;131308;1248;108114;-77
2023/02/24 09:38:16;;;;;;;20.50;14.30;;;;;;;7.66;89.16;98845.08;131395;1253;107257;-77
2023/02/24 09:41:52;;;;;;;44.20;27.10;;;;;;;7.53;89.32;98849.48;131205;1248;109301;-77
2023/02/24 09:45:01;;;;;;;16.50;10.60;;;;;;;7.36;90.56;98852.79;131194;1250;107378;-77
2023/02/24 09:48:15;;;;;;;16.10;10.20;;;;;;;7.22;90.01;98847.55;131317;1251;107412;-76
2023/02/24 09:51:24;;;;;;;22.40;14.00;;;;;;;7.17;89.50;98847.54;131277;1251;107412;-77
2023/02/24 09:54:34;;;;;;;51.20;32.20;;;;;;;7.15;89.16;98847.81;131276;1264;107419;-78
2023/02/24 10:01:32;;;;;;;13.10;8.80;;;;;;;7.18;88.91;98846.27;131220;1252;106097;-77
2023/02/24 10:04:52;;;;;;;70.30;44.50;;;;;;;7.16;89.19;98848.41;131260;1251;107520;-77
2023/02/24 10:07:59;;;;;;;17.80;11.50;;;;;;;7.12;88.96;98847.25;131261;1250;107513;-76
2023/02/24 10:11:09;;;;;;;42.80;29.70;;;;;;;7.08;88.78;98845.12;131228;1251;108580;-77
2023/02/24 10:14:18;;;;;;;15.10;9.00;;;;;;;7.12;89.01;98841.59;131292;1247;106916;-76
2023/02/24 10:17:38;;;;;;;28.30;19.60;;;;;;;7.11;88.54;98837.80;131297;1251;107577;-78
2023/02/24 10:20:48;;;;;;;18.50;10.80;;;;;;;7.16;88.81;98837.80;131201;1252;107578;-79
2023/02/24 10:24:06;;;;;;;17.80;10.90;;;;;;;7.18;88.48;98833.08;131317;1261;108676;-75
2023/02/24 10:27:22;;;;;;;50.70;33.40;;;;;;;7.19;88.55;98831.45;131231;1251;107568;-77
2023/02/24 10:30:46;;;;;;;17.70;10.40;;;;;;;7.12;87.96;98832.49;131231;1248;106400;-77
2023/02/24 10:33:55;;;;;;;34.20;21.40;;;;;;;7.02;88.15;98828.09;131220;1251;107443;-77
2023/02/24 10:37:11;;;;;;;12.20;7.30;;;;;;;7.02;88.52;98818.39;131229;1248;108622;-77
2023/02/24 10:40:25;;;;;;;13.90;7.40;;;;;;;7.07;88.35;98817.27;131256;1251;107580;-77
2023/02/24 10:43:30;;;;;;;12.20;8.30;;;;;;;7.14;88.36;98811.14;131397;1250;107360;-76
2023/02/24 10:46:37;;;;;;;11.00;7.20;;;;;;;7.23;88.10;98801.45;131395;1247;107445;-77
2023/02/24 10:49:56;;;;;;;11.30;7.40;;;;;;;7.34;88.02;98793.38;131381;1248;107364;-76
2023/02/24 10:53:25;;;;;;;14.50;7.80;;;;;;;7.52;88.16;98781.17;131460;1251;106071;-77
2023/02/24 10:56:43;;;;;;;28.90;24.20;;;;;;;7.73;87.98;98770.30;131463;1252;107403;-75
2023/02/24 11:00:19;;;;;;;91.30;59.20;;;;;;;7.98;88.01;98765.95;131386;1246;107268;-77
2023/02/24 11:03:34;;;;;;;22.00;14.20;;;;;;;8.18;87.30;98762.68;131417;1249;107516;-77
2023/02/24 11:06:54;;;;;;;26.90;19.00;;;;;;;8.25;87.31;98756.27;131481;1250;108592;-78
2023/02/24 11:10:12;;;;;;;13.80;9.40;;;;;;;8.34;87.37;98757.25;131404;1251;107465;-77
2023/02/24 11:20:26;;;;;;;29.60;19.70;;;;;;;8.54;87.03;98735.48;131315;1251;107638;-77
2023/02/24 11:23:37;;;;;;;34.70;19.60;;;;;;;8.61;86.73;98732.67;131501;1251;107522;-78
2023/02/24 11:26:43;;;;;;;38.30;27.60;;;;;;;8.62;86.57;98723.20;131339;1251;108598;-78
2023/02/24 11:30:05;;;;;;;26.20;18.40;;;;;;;8.64;86.56;98714.95;131389;1251;107552;-77
2023/02/24 11:33:25;;;;;;;39.10;30.00;;;;;;;8.67;86.57;98712.65;131436;1251;107370;-77
2023/02/24 11:36:38;;;;;;;79.70;51.90;;;;;;;8.69;86.13;98708.89;131351;1251;107612;-77
2023/02/24 11:39:54;;;;;;;39.50;28.00;;;;;;;8.75;86.25;98703.79;131298;1248;107367;-77
2023/02/24 11:43:05;;;;;;;47.50;30.50;;;;;;;8.87;86.41;98693.00;131214;1252;107473;-78
2023/02/24 11:46:15;;;;;;;27.30;18.20;;;;;;;9.00;86.39;98688.09;131176;1253;107320;-77
2023/02/24 11:49:29;;;;;;;50.40;34.10;;;;;;;9.05;86.16;98686.61;131245;1248;107405;-77
2023/02/24 11:52:40;;;;;;;57.80;40.70;;;;;;;9.08;86.08;98679.61;131234;1252;107537;-78
2023/02/24 11:55:48;;;;;;;68.70;46.10;;;;;;;9.08;85.93;98682.23;131191;1248;106435;-78
2023/02/24 11:59:02;;;;;;;122.40;86.80;;;;;;;8.95;85.82;98676.76;131223;1252;107484;-79
2023/02/24 12:02:19;;;;;;;40.10;25.20;;;;;;;8.90;85.71;98675.86;131242;1252;107494;-78
2023/02/24 12:05:28;;;;;;;48.60;34.60;;;;;;;8.80;85.79;98677.52;131288;1248;107473;-78
2023/02/24 12:08:36;;;;;;;34.00;24.50;;;;;;;8.68;85.86;98676.64;131269;1252;107012;-77
2023/02/24 12:11:49;;;;;;;43.80;29.90;;;;;;;8.59;85.82;98681.23;131324;1252;107468;-77
2023/02/24 12:15:00;;;;;;;24.80;16.70;;;;;;;8.55;85.91;98675.02;131195;1248;107212;-77
2023/02/24 12:18:17;;;;;;;25.60;18.50;;;;;;;8.70;86.29;98662.14;131322;1252;107592;-77
2023/02/24 12:21:29;;;;;;;25.70;19.90;;;;;;;8.96;86.09;98656.67;131232;1252;107463;-77
2023/02/24 12:24:38;;;;;;;23.80;16.90;;;;;;;9.15;85.75;98650.11;131214;1252;106540;-78
2023/02/24 12:27:58;;;;;;;38.90;27.50;;;;;;;9.30;85.59;98647.63;131280;1252;107374;-78
2023/02/24 12:31:13;;;;;;;41.40;27.40;;;;;;;9.42;85.27;98642.77;131086;1248;107406;-78
2023/02/24 12:34:31;;;;;;;34.50;20.90;;;;;;;9.43;84.63;98641.73;131166;1252;107474;-78
2023/02/24 12:37:49;;;;;;;25.80;16.90;;;;;;;9.37;84.34;98636.08;131072;1248;107621;-78
2023/02/24 12:41:06;;;;;;;37.10;23.60;;;;;;;9.37;84.46;98630.51;131172;1252;108659;-77
2023/02/24 12:44:26;;;;;;;46.00;28.70;;;;;;;9.45;84.68;98622.75;131081;1268;107565;-78
2023/02/24 12:47:49;;;;;;;25.80;15.00;;;;;;;9.57;84.78;98613.38;131072;1254;108209;-78
2023/02/24 12:51:04;;;;;;;21.70;14.00;;;;;;;9.62;84.37;98611.77;131184;1248;107253;-77
2023/02/24 12:54:21;;;;;;;21.30;14.30;;;;;;;9.58;84.04;98608.96;131317;1248;107399;-78
2023/02/24 12:57:32;;;;;;;21.30;13.80;;;;;;;9.64;84.35;98600.97;131402;1250;107231;-78
2023/02/24 13:00:50;;;;;;;21.00;13.50;;;;;;;9.61;84.04;98596.11;131392;1248;107322;-78
2023/02/24 13:04:12;;;;;;;19.80;12.90;;;;;;;9.58;83.90;98594.86;131331;1254;107506;-78
2023/02/24 13:07:45;;;;;;;21.00;14.20;;;;;;;9.57;83.84;98591.19;131331;1253;107550;-78
2023/02/24 13:11:01;;;;;;;21.50;14.60;;;;;;;9.68;83.77;98581.60;131246;1252;108775;-78
2023/02/24 13:14:14;;;;;;;24.10;15.70;;;;;;;9.78;83.02;98569.65;131422;1250;107280;-78
2023/02/24 13:17:26;;;;;;;60.30;48.30;;;;;;;9.76;82.51;98560.74;131358;1254;107485;-77
2023/02/24 13:20:35;;;;;;;39.80;30.70;;;;;;;9.70;82.48;98552.56;131369;1248;107237;-78
2023/02/24 13:23:42;;;;;;;53.10;42.20;;;;;;;9.67;82.86;98548.89;131438;1252;107539;-78
2023/02/24 13:26:48;;;;;;;37.70;27.10;;;;;;;9.63;82.72;98544.79;131399;1252;107476;-78
2023/02/24 13:29:55;;;;;;;39.10;30.10;;;;;;;9.52;81.91;98544.84;131374;1252;107461;-75
2023/02/24 13:33:07;;;;;;;64.00;50.20;;;;;;;9.34;81.99;98539.44;131296;1252;107399;-76
2023/02/24 13:36:20;;;;;;;104.80;85.50;;;;;;;9.20;81.34;98542.16;131105;1248;107321;-78
2023/02/24 13:39:33;;;;;;;86.40;66.80;;;;;;;9.13;82.06;98535.55;131275;1252;107477;-78
2023/02/24 13:42:36;;;;;;;;;;;;;;;9.12;81.98;98534.67;131236;1263;107380;-78
2023/02/24 13:45:43;;;;;;;36.60;24.90;;;;;;;9.14;81.89;98529.75;131240;1248;108002;-78
2023/02/24 13:48:59;;;;;;;76.30;55.60;;;;;;;9.16;81.45;98528.33;131101;1253;107338;-78
2023/02/24 13:52:15;;;;;;;25.30;18.10;;;;;;;9.20;81.86;98529.54;131074;1252;107366;-77
2023/02/24 13:55:38;;;;;;;22.20;14.70;;;;;;;9.30;81.08;98529.80;131152;1250;107363;-78
2023/02/24 13:59:11;;;;;;;16.70;12.10;;;;;;;9.34;81.17;98528.83;131070;1250;107502;-78
2023/02/24 14:02:16;;;;;;;;;;;;;;;9.25;80.35;98534.46;131090;1250;107486;-78
2023/02/24 14:05:26;;;;;;;35.50;26.20;;;;;;;9.15;80.25;98532.45;131150;1252;106364;-78
2023/02/24 14:08:41;;;;;;;39.80;30.90;;;;;;;9.08;80.58;98525.08;131226;1250;107262;-78
2023/02/24 14:11:50;;;;;;;22.70;16.60;;;;;;;9.01;80.56;98523.70;131173;1252;107623;-78
2023/02/24 14:14:56;;;;;;;20.90;14.50;;;;;;;8.91;80.58;98517.80;131071;1254;107234;-78
2023/02/24 14:18:04;;;;;;;26.20;18.60;;;;;;;8.83;80.06;98519.73;131270;1252;108517;-78
2023/02/24 14:21:22;;;;;;;24.40;16.30;;;;;;;8.72;79.86;98517.42;131308;1250;107375;-77
2023/02/24 14:24:29;;;;;;;82.40;45.30;;;;;;;8.59;80.11;98523.26;131387;1252;107544;-77
2023/02/24 14:27:37;;;;;;;19.50;13.60;;;;;;;8.49;80.23;98522.27;131391;1253;107194;-77
2023/02/24 14:30:42;;;;;;;16.50;12.10;;;;;;;8.44;79.69;98516.35;131355;1252;106095;-78
2023/02/24 14:33:53;;;;;;;18.10;12.40;;;;;;;8.43;79.98;98510.65;131390;1252;106693;-78
2023/02/24 14:37:01;;;;;;;19.30;14.80;;;;;;;8.43;79.93;98506.48;131134;1252;107640;-78
2023/02/24 14:40:16;;;;;;;14.70;10.90;;;;;;;8.41;79.55;98504.63;131300;1252;107477;-77
2023/02/24 14:43:21;;;;;;;14.70;10.40;;;;;;;8.35;79.64;98502.71;131074;1252;115443;-78
2023/02/24 14:46:27;;;;;;;12.40;9.10;;;;;;;8.33;79.73;98501.73;131080;1252;108743;-78
2023/02/24 14:49:35;;;;;;;16.00;11.90;;;;;;;8.27;79.52;98501.58;131067;1250;107518;-77